Time;durP1;ratioP1;P1;durP2;ratioP2;P2;SDS_P1;SDS_P2;PMS_P1;PMS_P2;Temp;Humidity;BMP_temperature;BMP_pressure;BME280_temperature;BME280_humidity;BME280_pressure;Samples;Min_cycle;Max_cycle;Signal;HPM_P1;HPM_P2
2023/08/28 00:01:55;;;;;;;8.37;7.53;;;;;;;;;;5032424;28;20212;-84
2023/08/28 00:04:25;;;;;;;9.93;7.67;;;;;;;;;;5045104;28;20188;-84
2023/08/28 00:07:06;;;;;;;8.13;7.03;;;;;;;;;;5017770;28;20180;-84
2023/08/28 00:09:36;;;;;;;8.23;6.97;;;;;;;;;;5044621;28;20191;-84
2023/08/28 00:12:08;;;;;;;10.33;7.43;;;;;;;;;;5052412;28;20183;-84
2023/08/28 00:14:34;;;;;;;9.20;7.20;;;;;;;;;;5005020;28;20194;-83
2023/08/28 00:17:08;;;;;;;10.43;7.07;;;;;;;;;;5039824;28;20184;-84
2023/08/28 00:19:41;;;;;;;8.87;7.67;;;;;;;;;;5015882;28;20196;-84
2023/08/28 00:22:10;;;;;;;9.03;7.30;;;;;;;;;;5016546;28;20212;-84
2023/08/28 00:24:38;;;;;;;9.30;7.20;;;;;;;;;;5035465;28;20193;-84
2023/08/28 00:27:04;;;;;;;8.80;7.67;;;;;;;;;;5047722;28;20191;-84
2023/08/28 00:29:30;;;;;;;9.53;7.77;;;;;;;;;;5046378;28;20269;-83
2023/08/28 00:31:59;;;;;;;10.87;7.43;;;;;;;;;;5010070;28;20219;-84
2023/08/28 00:34:25;;;;;;;9.67;7.00;;;;;;;;;;5030073;28;20214;-84
2023/08/28 00:36:51;;;;;;;8.77;7.30;;;;;;;;;;5023790;28;20224;-84
2023/08/28 00:39:17;;;;;;;8.87;7.37;;;;;;;;;;5028268;28;20184;-84
2023/08/28 00:41:45;;;;;;;9.93;7.67;;;;;;;;;;5026754;28;20392;-84
2023/08/28 00:44:11;;;;;;;9.20;7.67;;;;;;;;;;5022774;28;20177;-84
2023/08/28 00:46:37;;;;;;;10.63;7.20;;;;;;;;;;5019467;28;20180;-84
2023/08/28 00:49:06;;;;;;;11.57;7.87;;;;;;;;;;5032629;28;20196;-84
2023/08/28 00:51:32;;;;;;;11.13;8.03;;;;;;;;;;5032471;28;20207;-84
2023/08/28 00:53:58;;;;;;;11.93;8.17;;;;;;;;;;5028275;28;20195;-84
2023/08/28 00:56:24;;;;;;;8.90;8.10;;;;;;;;;;5037409;28;20204;-83
2023/08/28 00:58:53;;;;;;;10.87;8.40;;;;;;;;;;5037853;28;20216;-83
2023/08/28 01:01:19;;;;;;;10.17;7.20;;;;;;;;;;5034528;28;20212;-83
2023/08/28 01:03:46;;;;;;;9.40;7.87;;;;;;;;;;5020284;28;20211;-83
2023/08/28 01:06:30;;;;;;;9.13;7.93;;;;;;;;;;5047925;28;20184;-83
2023/08/28 01:09:06;;;;;;;12.70;8.73;;;;;;;;;;5051944;28;20247;-83
2023/08/28 01:11:47;;;;;;;9.13;8.17;;;;;;;;;;5041959;28;20188;-83
2023/08/28 01:14:20;;;;;;;9.50;8.20;;;;;;;;;;5051986;28;20210;-82
2023/08/28 01:16:46;;;;;;;11.63;8.40;;;;;;;;;;5040797;28;20188;-83
2023/08/28 01:19:19;;;;;;;13.67;9.10;;;;;;;;;;5043686;28;20235;-83
2023/08/28 01:21:49;;;;;;;13.23;8.47;;;;;;;;;;5038416;28;20215;-83
2023/08/28 01:24:21;;;;;;;10.87;8.27;;;;;;;;;;5033007;28;20238;-84
2023/08/28 01:26:47;;;;;;;10.93;8.23;;;;;;;;;;5052704;28;20267;-84
2023/08/28 01:29:13;;;;;;;12.87;7.77;;;;;;;;;;5044867;28;20185;-83
2023/08/28 01:31:39;;;;;;;11.87;7.70;;;;;;;;;;5041766;28;20183;-84
2023/08/28 01:34:08;;;;;;;9.50;8.03;;;;;;;;;;5021437;28;20258;-83
2023/08/28 01:36:40;;;;;;;8.73;7.80;;;;;;;;;;5031601;28;20192;-83
2023/08/28 01:39:11;;;;;;;10.50;7.93;;;;;;;;;;5042956;28;20282;-84
2023/08/28 01:41:38;;;;;;;12.23;8.00;;;;;;;;;;5035441;28;20215;-84
2023/08/28 01:44:05;;;;;;;9.93;7.93;;;;;;;;;;5032338;28;20180;-83
2023/08/28 01:46:33;;;;;;;11.07;7.73;;;;;;;;;;5038456;28;20176;-83
2023/08/28 01:48:59;;;;;;;11.47;7.80;;;;;;;;;;5055846;28;20176;-84
2023/08/28 01:51:25;;;;;;;9.93;7.97;;;;;;;;;;5038272;28;20195;-84
2023/08/28 01:53:53;;;;;;;10.67;8.40;;;;;;;;;;5042032;28;20256;-84
2023/08/28 01:56:25;;;;;;;9.23;8.40;;;;;;;;;;5035548;28;20291;-84
2023/08/28 01:59:02;;;;;;;13.67;8.63;;;;;;;;;;5021612;28;20254;-84
2023/08/28 02:01:28;;;;;;;12.27;8.70;;;;;;;;;;5051265;28;20215;-84
2023/08/28 02:03:54;;;;;;;9.80;8.43;;;;;;;;;;5047290;28;20192;-84
2023/08/28 02:06:20;;;;;;;9.80;8.80;;;;;;;;;;5048376;28;20184;-84
2023/08/28 02:08:46;;;;;;;10.57;9.03;;;;;;;;;;5043187;28;20172;-84
2023/08/28 02:11:12;;;;;;;11.90;8.57;;;;;;;;;;5036333;28;20191;-84
2023/08/28 02:13:38;;;;;;;9.93;8.90;;;;;;;;;;5035547;28;20208;-84
2023/08/28 02:16:05;;;;;;;11.10;8.43;;;;;;;;;;5019243;28;20271;-84
2023/08/28 02:18:33;;;;;;;12.43;8.67;;;;;;;;;;5040437;28;20181;-84
2023/08/28 02:21:00;;;;;;;9.30;8.30;;;;;;;;;;5019627;28;20204;-84
2023/08/28 02:23:26;;;;;;;9.63;8.37;;;;;;;;;;5027755;28;20184;-84
2023/08/28 02:25:54;;;;;;;9.47;8.47;;;;;;;;;;5055247;28;20283;-84
2023/08/28 02:28:21;;;;;;;10.57;8.73;;;;;;;;;;5055039;28;20179;-84
2023/08/28 02:30:47;;;;;;;11.30;9.23;;;;;;;;;;5053405;28;20210;-84
2023/08/28 02:33:16;;;;;;;13.13;8.60;;;;;;;;;;5024745;28;20200;-84
2023/08/28 02:35:42;;;;;;;11.57;8.37;;;;;;;;;;5051886;28;20188;-84
2023/08/28 02:38:09;;;;;;;12.07;10.97;;;;;;;;;;5037898;28;20232;-84
2023/08/28 02:40:39;;;;;;;16.90;12.17;;;;;;;;;;5018548;28;20192;-84
2023/08/28 02:43:05;;;;;;;13.77;10.83;;;;;;;;;;5043448;28;20183;-84
2023/08/28 02:45:39;;;;;;;11.73;9.93;;;;;;;;;;5040776;28;20318;-84
2023/08/28 02:48:05;;;;;;;9.80;8.90;;;;;;;;;;5036231;28;20187;-84
2023/08/28 02:50:40;;;;;;;10.03;8.30;;;;;;;;;;5054103;28;20183;-84
2023/08/28 02:53:06;;;;;;;12.30;8.83;;;;;;;;;;5042962;28;20294;-84
2023/08/28 02:55:42;;;;;;;10.60;8.77;;;;;;;;;;5028497;28;20199;-84
2023/08/28 02:58:08;;;;;;;10.47;9.00;;;;;;;;;;5035803;28;20187;-84
2023/08/28 03:00:35;;;;;;;9.93;8.90;;;;;;;;;;5054324;28;20195;-84
2023/08/28 03:03:01;;;;;;;13.73;9.37;;;;;;;;;;5038040;28;20275;-84
2023/08/28 03:05:28;;;;;;;10.87;8.70;;;;;;;;;;5019275;28;20193;-84
2023/08/28 03:07:56;;;;;;;10.47;8.63;;;;;;;;;;5047455;28;20180;-83
2023/08/28 03:10:23;;;;;;;9.63;8.63;;;;;;;;;;5044994;28;20206;-84
2023/08/28 03:12:49;;;;;;;11.00;8.47;;;;;;;;;;5040262;28;20220;-84
2023/08/28 03:15:15;;;;;;;10.23;9.03;;;;;;;;;;5045501;28;20192;-84
2023/08/28 03:17:41;;;;;;;10.67;9.70;;;;;;;;;;5034669;28;20243;-84
2023/08/28 03:20:09;;;;;;;11.77;9.10;;;;;;;;;;5043818;28;20263;-84
2023/08/28 03:22:35;;;;;;;13.43;9.37;;;;;;;;;;5054044;28;20215;-84
2023/08/28 03:25:01;;;;;;;11.40;9.40;;;;;;;;;;5054078;28;20184;-83
2023/08/28 03:27:27;;;;;;;10.60;8.87;;;;;;;;;;5054201;28;20184;-83
2023/08/28 03:29:53;;;;;;;11.43;8.50;;;;;;;;;;5036300;28;20187;-84
2023/08/28 03:32:19;;;;;;;10.50;9.50;;;;;;;;;;5018166;28;20199;-84
2023/08/28 03:34:46;;;;;;;11.20;9.43;;;;;;;;;;5040457;28;20191;-84
2023/08/28 03:37:12;;;;;;;13.00;9.93;;;;;;;;;;5039724;28;20220;-84
2023/08/28 03:39:38;;;;;;;10.97;9.33;;;;;;;;;;5017133;28;20189;-84
2023/08/28 03:42:04;;;;;;;9.80;8.83;;;;;;;;;;5018258;28;20212;-83
2023/08/28 03:44:30;;;;;;;11.90;9.27;;;;;;;;;;5033158;28;20207;-83
2023/08/28 03:46:56;;;;;;;10.30;9.20;;;;;;;;;;5018361;28;20231;-83
2023/08/28 03:49:22;;;;;;;10.40;9.17;;;;;;;;;;5037732;28;20222;-83
2023/08/28 03:51:48;;;;;;;10.50;9.37;;;;;;;;;;5037584;28;20276;-83
2023/08/28 03:54:14;;;;;;;12.40;9.57;;;;;;;;;;5039323;28;20219;-84
2023/08/28 03:56:42;;;;;;;14.37;9.53;;;;;;;;;;5037105;28;20245;-83
2023/08/28 03:59:08;;;;;;;12.73;9.03;;;;;;;;;;5026494;28;20184;-83
2023/08/28 04:01:34;;;;;;;12.67;9.00;;;;;;;;;;5022473;28;20406;-83
2023/08/28 04:04:00;;;;;;;11.27;9.53;;;;;;;;;;5042803;28;20225;-83
2023/08/28 04:06:26;;;;;;;12.17;9.67;;;;;;;;;;5053531;28;20183;-82
2023/08/28 04:08:53;;;;;;;11.40;10.23;;;;;;;;;;5041365;28;20185;-83
2023/08/28 04:11:19;;;;;;;10.07;9.00;;;;;;;;;;5031682;28;20203;-83
2023/08/28 04:13:45;;;;;;;9.70;8.77;;;;;;;;;;5035846;28;20192;-83
2023/08/28 04:16:14;;;;;;;11.33;9.20;;;;;;;;;;5016671;28;20192;-83
2023/08/28 04:18:40;;;;;;;10.67;9.03;;;;;;;;;;5022382;28;20192;-83
2023/08/28 04:21:06;;;;;;;13.03;9.93;;;;;;;;;;5036754;28;20223;-83
2023/08/28 04:23:32;;;;;;;9.50;8.60;;;;;;;;;;5022115;28;20185;-83
2023/08/28 04:26:00;;;;;;;11.57;9.50;;;;;;;;;;5016321;28;20185;-83
2023/08/28 04:28:26;;;;;;;14.07;9.97;;;;;;;;;;5034040;28;20234;-83
2023/08/28 04:30:52;;;;;;;11.13;9.80;;;;;;;;;;5016132;28;20192;-83
2023/08/28 04:33:20;;;;;;;9.90;9.00;;;;;;;;;;5023328;28;20189;-83
2023/08/28 04:35:46;;;;;;;11.57;9.47;;;;;;;;;;5017791;28;20259;-83
2023/08/28 04:38:13;;;;;;;10.03;9.00;;;;;;;;;;5033549;28;20231;-83
2023/08/28 04:40:39;;;;;;;10.20;9.27;;;;;;;;;;5016111;28;20188;-84
2023/08/28 04:43:05;;;;;;;10.57;9.57;;;;;;;;;;5033721;28;20172;-83
2023/08/28 04:45:31;;;;;;;11.57;10.33;;;;;;;;;;5033625;28;20230;-83
2023/08/28 04:47:57;;;;;;;11.33;10.20;;;;;;;;;;5017194;28;20177;-83
2023/08/28 04:50:23;;;;;;;12.37;10.13;;;;;;;;;;5030593;28;20173;-84
2023/08/28 04:52:52;;;;;;;12.60;9.53;;;;;;;;;;5037220;28;20240;-84
2023/08/28 04:55:18;;;;;;;10.23;9.23;;;;;;;;;;5033156;28;20188;-83
2023/08/28 04:57:44;;;;;;;13.40;9.40;;;;;;;;;;5033887;28;20187;-84
2023/08/28 05:00:13;;;;;;;14.80;9.50;;;;;;;;;;5043052;28;20192;-84
2023/08/28 05:02:39;;;;;;;13.17;8.90;;;;;;;;;;5046235;28;20204;-83
2023/08/28 05:05:05;;;;;;;11.13;9.53;;;;;;;;;;5032441;28;20219;-84
2023/08/28 05:07:37;;;;;;;10.30;9.07;;;;;;;;;;5016758;28;20207;-84
2023/08/28 05:10:03;;;;;;;11.17;9.87;;;;;;;;;;5033518;28;20173;-83
2023/08/28 05:12:29;;;;;;;11.37;9.63;;;;;;;;;;5033117;28;20177;-84
2023/08/28 05:15:01;;;;;;;13.23;9.80;;;;;;;;;;5032195;28;20220;-84
2023/08/28 05:17:27;;;;;;;12.37;10.33;;;;;;;;;;5032787;28;20187;-84
2023/08/28 05:19:53;;;;;;;11.43;10.17;;;;;;;;;;5032394;28;20183;-84
2023/08/28 05:22:22;;;;;;;14.67;10.90;;;;;;;;;;5016448;28;20267;-84
2023/08/28 05:24:48;;;;;;;14.50;11.30;;;;;;;;;;5032854;28;20187;-84
2023/08/28 05:27:14;;;;;;;12.77;11.47;;;;;;;;;;5032982;28;20187;-84
2023/08/28 05:29:41;;;;;;;13.30;11.07;;;;;;;;;;5034107;28;20184;-84
2023/08/28 05:32:07;;;;;;;13.63;11.00;;;;;;;;;;5032940;28;20180;-84
2023/08/28 05:34:33;;;;;;;13.73;10.60;;;;;;;;;;5032504;28;20219;-84
2023/08/28 05:36:59;;;;;;;12.17;10.87;;;;;;;;;;5032697;28;20192;-84
2023/08/28 05:39:26;;;;;;;12.27;10.93;;;;;;;;;;5016422;28;20196;-84
2023/08/28 05:41:52;;;;;;;13.20;11.90;;;;;;;;;;5032771;28;20219;-84
2023/08/28 05:44:18;;;;;;;13.97;12.57;;;;;;;;;;5032628;28;20173;-84
2023/08/28 05:46:44;;;;;;;13.13;11.83;;;;;;;;;;5033000;28;20227;-84
2023/08/28 05:49:13;;;;;;;13.43;11.83;;;;;;;;;;5032906;28;20180;-84
2023/08/28 05:51:42;;;;;;;14.43;12.90;;;;;;;;;;5032614;28;20196;-84
2023/08/28 05:54:10;;;;;;;13.23;11.83;;;;;;;;;;5016833;28;20243;-84
2023/08/28 05:56:36;;;;;;;13.70;11.93;;;;;;;;;;5016442;28;20219;-84
2023/08/28 05:59:03;;;;;;;17.43;12.60;;;;;;;;;;5032425;28;20230;-84
2023/08/28 06:01:29;;;;;;;14.83;13.23;;;;;;;;;;5032613;28;20212;-84
2023/08/28 06:03:59;;;;;;;20.40;18.17;;;;;;;;;;5032356;28;20176;-85
2023/08/28 06:06:25;;;;;;;21.73;19.60;;;;;;;;;;5016619;28;20181;-84
2023/08/28 06:08:51;;;;;;;20.83;18.60;;;;;;;;;;5032478;28;20177;-84
2023/08/28 06:11:20;;;;;;;23.57;18.47;;;;;;;;;;5032401;28;20188;-84
2023/08/28 06:13:49;;;;;;;22.47;20.10;;;;;;;;;;5032398;28;20181;-84
2023/08/28 06:16:17;;;;;;;22.70;20.50;;;;;;;;;;5016185;28;20472;-84
2023/08/28 06:18:43;;;;;;;22.37;20.03;;;;;;;;;;5032582;28;20181;-84
2023/08/28 06:21:09;;;;;;;22.30;20.20;;;;;;;;;;5016392;28;20299;-84
2023/08/28 06:23:35;;;;;;;22.13;19.83;;;;;;;;;;5016285;28;20219;-84
2023/08/28 06:26:03;;;;;;;22.33;20.13;;;;;;;;;;5032680;28;20180;-84
2023/08/28 06:28:30;;;;;;;21.13;18.97;;;;;;;;;;5032723;28;20173;-84
2023/08/28 06:30:56;;;;;;;19.37;17.43;;;;;;;;;;5032773;28;20188;-84
2023/08/28 06:33:25;;;;;;;20.93;18.73;;;;;;;;;;5019692;28;20219;-84
2023/08/28 06:35:52;;;;;;;20.20;18.30;;;;;;;;;;5019969;28;20216;-86
2023/08/28 06:38:18;;;;;;;19.63;17.67;;;;;;;;;;5034630;28;20303;-84
2023/08/28 06:40:56;;;;;;;19.77;17.63;;;;;;;;;;5036551;28;20184;-84
2023/08/28 06:43:29;;;;;;;21.80;19.47;;;;;;;;;;5035877;28;20184;-85
2023/08/28 06:45:58;;;;;;;19.50;17.50;;;;;;;;;;5054360;28;20184;-84
2023/08/28 06:48:24;;;;;;;19.00;17.20;;;;;;;;;;5046655;28;20272;-84
2023/08/28 06:50:51;;;;;;;17.20;15.37;;;;;;;;;;5032648;28;20240;-84
2023/08/28 06:53:17;;;;;;;17.03;15.33;;;;;;;;;;5048654;28;20204;-84
2023/08/28 06:55:46;;;;;;;16.33;14.43;;;;;;;;;;5035279;28;20176;-84
2023/08/28 06:58:12;;;;;;;17.43;15.07;;;;;;;;;;5046966;28;20179;-84
2023/08/28 07:00:38;;;;;;;16.87;14.80;;;;;;;;;;5040338;28;20177;-84
2023/08/28 07:03:06;;;;;;;15.13;13.63;;;;;;;;;;5051661;28;20180;-84
2023/08/28 07:05:32;;;;;;;16.60;14.20;;;;;;;;;;5035288;28;20235;-84
2023/08/28 07:07:58;;;;;;;15.70;14.13;;;;;;;;;;5044926;28;20186;-84
2023/08/28 07:10:27;;;;;;;15.17;13.87;;;;;;;;;;5041946;28;20259;-84
2023/08/28 07:12:58;;;;;;;15.93;13.73;;;;;;;;;;5051848;28;20179;-84
2023/08/28 07:15:33;;;;;;;15.43;13.93;;;;;;;;;;5040102;28;20182;-84
2023/08/28 07:18:03;;;;;;;15.00;13.50;;;;;;;;;;5045377;28;20218;-84
2023/08/28 07:20:29;;;;;;;14.70;13.40;;;;;;;;;;5032817;28;20187;-84
2023/08/28 07:22:55;;;;;;;15.67;14.03;;;;;;;;;;5038171;28;20228;-84
2023/08/28 07:25:24;;;;;;;14.83;13.27;;;;;;;;;;5050332;28;20177;-85
2023/08/28 07:27:54;;;;;;;14.10;12.83;;;;;;;;;;5031854;28;20197;-84
2023/08/28 07:30:23;;;;;;;13.73;12.37;;;;;;;;;;5031259;28;20190;-84
2023/08/28 07:33:04;;;;;;;14.07;12.97;;;;;;;;;;5031720;28;20193;-85
2023/08/28 07:35:35;;;;;;;17.77;12.83;;;;;;;;;;5042587;28;20183;-86
2023/08/28 07:38:10;;;;;;;14.07;12.87;;;;;;;;;;5031589;28;20255;-86
2023/08/28 07:40:36;;;;;;;15.67;13.40;;;;;;;;;;5044582;28;20288;-86
2023/08/28 07:43:02;;;;;;;15.07;13.67;;;;;;;;;;5027041;28;20176;-85
2023/08/28 07:45:49;;;;;;;14.13;12.47;;;;;;;;;;5047753;28;20216;-85
2023/08/28 07:48:27;;;;;;;13.93;12.53;;;;;;;;;;5035017;28;20193;-85
2023/08/28 07:50:53;;;;;;;13.90;12.50;;;;;;;;;;5049115;28;20196;-86
2023/08/28 07:53:21;;;;;;;14.50;13.20;;;;;;;;;;5050981;28;20426;-85
2023/08/28 07:55:47;;;;;;;14.93;12.80;;;;;;;;;;5051867;28;20177;-86
2023/08/28 07:58:16;;;;;;;13.87;12.50;;;;;;;;;;5051031;28;20185;-86
2023/08/28 08:01:08;;;;;;;12.13;11.03;;;;;;;;;;5052176;28;20215;-86
2023/08/28 08:03:59;;;;;;;12.10;10.80;;;;;;;;;;5014466;28;20189;-88
2023/08/28 08:06:27;;;;;;;13.23;11.83;;;;;;;;;;5014179;28;20177;-85
2023/08/28 08:08:54;;;;;;;13.83;11.20;;;;;;;;;;5014409;28;20177;-85
2023/08/28 08:11:20;;;;;;;12.23;10.40;;;;;;;;;;5014337;28;20199;-84
2023/08/28 08:13:56;;;;;;;11.20;10.13;;;;;;;;;;5014528;28;20182;-86
2023/08/28 08:16:26;;;;;;;12.73;11.53;;;;;;;;;;5014278;28;20209;-86
2023/08/28 08:18:52;;;;;;;11.80;10.50;;;;;;;;;;5027466;28;20189;-85
2023/08/28 08:21:18;;;;;;;12.30;10.27;;;;;;;;;;5030617;28;20225;-86
2023/08/28 08:23:48;;;;;;;9.93;9.03;;;;;;;;;;5030513;28;20200;-85
2023/08/28 08:26:17;;;;;;;11.73;9.00;;;;;;;;;;5031031;28;20177;-85
2023/08/28 08:28:48;;;;;;;8.80;7.90;;;;;;;;;;5031023;28;20215;-86
2023/08/28 08:31:22;;;;;;;7.95;7.07;;;;;;;;;;5030452;28;20427;-86
2023/08/28 08:34:11;;;;;;;6.55;5.55;;;;;;;;;;5032249;28;20432;-85
2023/08/28 08:36:39;;;;;;;6.13;4.80;;;;;;;;;;5036020;28;20177;-86
2023/08/28 08:39:11;;;;;;;8.00;5.85;;;;;;;;;;5017116;28;20480;-86
2023/08/28 08:41:42;;;;;;;6.53;5.67;;;;;;;;;;5032792;28;20432;-85
2023/08/28 08:44:15;;;;;;;7.35;5.72;;;;;;;;;;5033684;28;20413;-86
2023/08/28 08:46:45;;;;;;;6.40;5.53;;;;;;;;;;5032995;28;20406;-86
2023/08/28 08:49:52;;;;;;;6.63;5.18;;;;;;;;;;5017075;28;20421;-87
2023/08/28 08:52:15;;;;;;;5.80;5.20;;;;;;;;;;5029964;28;20211;-86
2023/08/28 08:54:42;;;;;;;6.65;5.28;;;;;;;;;;5032297;28;20410;-87
2023/08/28 08:57:09;;;;;;;5.18;4.20;;;;;;;;;;5033362;28;20413;-87
2023/08/28 08:59:38;;;;;;;6.27;3.70;;;;;;;;;;5033055;28;20177;-87
2023/08/28 09:02:05;;;;;;;5.85;4.10;;;;;;;;;;5032047;28;20434;-86
2023/08/28 09:04:35;;;;;;;4.27;3.17;;;;;;;;;;5032118;28;20173;-87
2023/08/28 09:07:05;;;;;;;5.35;2.97;;;;;;;;;;5032845;28;20503;-87
2023/08/28 09:09:39;;;;;;;4.15;3.17;;;;;;;;;;5032151;28;20413;-86
2023/08/28 09:12:13;;;;;;;5.05;2.70;;;;;;;;;;5013898;28;20450;-85
2023/08/28 09:14:45;;;;;;;3.47;2.30;;;;;;;;;;5012773;28;20411;-85
2023/08/28 09:17:16;;;;;;;5.60;2.70;;;;;;;;;;5013271;28;20442;-85
2023/08/28 09:19:44;;;;;;;4.13;2.60;;;;;;;;;;5012794;28;20450;-85
2023/08/28 09:22:10;;;;;;;4.70;2.80;;;;;;;;;;5013618;28;20209;-86
2023/08/28 09:24:37;;;;;;;4.57;3.05;;;;;;;;;;5012250;28;20431;-85
2023/08/28 09:27:05;;;;;;;5.85;2.88;;;;;;;;;;5012808;28;20423;-84
2023/08/28 09:29:31;;;;;;;4.00;2.80;;;;;;;;;;5012403;28;20403;-87
2023/08/28 09:32:16;;;;;;;;;;;;;;;;;;;;;
2023/08/28 09:34:48;;;;;;;3.85;2.20;;;;;;;;;;5032795;28;20409;-88
2023/08/28 09:37:19;;;;;;;3.03;2.10;;;;;;;;;;5016589;28;20493;-88
2023/08/28 09:40:05;;;;;;;;;;;;;;;;;;;;;
2023/08/28 09:42:37;;;;;;;2.63;1.60;;;;;;;;;;5032974;28;20431;-87
2023/08/28 09:45:08;;;;;;;3.50;1.60;;;;;;;;;;5032465;28;20492;-87
2023/08/28 09:47:43;;;;;;;1.95;1.40;;;;;;;;;;5028749;28;20425;-88
2023/08/28 09:50:14;;;;;;;4.60;1.50;;;;;;;;;;5012059;28;20411;-88
2023/08/28 09:52:41;;;;;;;2.63;1.52;;;;;;;;;;4996032;28;20442;-87
2023/08/28 09:55:10;;;;;;;4.50;1.70;;;;;;;;;;5012183;28;20446;-87
2023/08/28 09:57:38;;;;;;;2.80;1.45;;;;;;;;;;5012784;28;20438;-86
2023/08/28 10:00:05;;;;;;;3.00;1.60;;;;;;;;;;5012530;28;20411;-86
2023/08/28 10:02:34;;;;;;;2.50;1.50;;;;;;;;;;4997338;28;20212;-87
2023/08/28 10:05:02;;;;;;;2.08;1.63;;;;;;;;;;5013270;28;20415;-86
2023/08/28 10:07:31;;;;;;;2.10;1.60;;;;;;;;;;5016435;28;20301;-87
2023/08/28 10:09:59;;;;;;;2.90;1.70;;;;;;;;;;5016563;28;20483;-87
2023/08/28 10:12:43;;;;;;;1.85;1.48;;;;;;;;;;5017217;28;20181;-87
2023/08/28 10:15:15;;;;;;;4.18;1.60;;;;;;;;;;5016884;28;20415;-85
2023/08/28 10:17:41;;;;;;;2.67;1.40;;;;;;;;;;5016126;28;20426;-86
2023/08/28 10:20:12;;;;;;;3.40;1.40;;;;;;;;;;5031835;28;20502;-85
2023/08/28 10:22:42;;;;;;;3.97;1.40;;;;;;;;;;5033999;28;20414;-87
2023/08/28 10:25:13;;;;;;;3.13;1.40;;;;;;;;;;5032467;28;20411;-87
2023/08/28 10:27:42;;;;;;;2.95;1.42;;;;;;;;;;5032588;28;20414;-87
2023/08/28 10:30:09;;;;;;;1.55;1.10;;;;;;;;;;5032138;28;20406;-87
2023/08/28 10:32:39;;;;;;;1.83;0.88;;;;;;;;;;5033369;28;20184;-87
2023/08/28 10:35:06;;;;;;;2.40;1.00;;;;;;;;;;5032657;28;20178;-86
2023/08/28 10:37:34;;;;;;;1.55;1.20;;;;;;;;;;5032866;28;20192;-87
2023/08/28 10:40:03;;;;;;;1.65;1.00;;;;;;;;;;5032850;28;20229;-86
2023/08/28 10:42:30;;;;;;;2.40;1.00;;;;;;;;;;5032973;28;20268;-87
2023/08/28 10:44:59;;;;;;;2.13;1.10;;;;;;;;;;5033160;28;20173;-87
2023/08/28 10:47:26;;;;;;;1.50;1.10;;;;;;;;;;5032631;28;20177;-87
2023/08/28 10:50:13;;;;;;;2.15;1.00;;;;;;;;;;5033107;28;20180;-86
2023/08/28 10:52:46;;;;;;;0.88;0.80;;;;;;;;;;5022864;28;20196;-87
2023/08/28 10:55:19;;;;;;;1.85;1.20;;;;;;;;;;5036254;28;20516;-87
2023/08/28 10:57:53;;;;;;;2.60;1.15;;;;;;;;;;5036024;28;20409;-87
2023/08/28 11:00:22;;;;;;;1.92;1.20;;;;;;;;;;5019869;28;20183;-87
2023/08/28 11:03:10;;;;;;;2.85;1.27;;;;;;;;;;5036140;28;20216;-87
2023/08/28 11:05:40;;;;;;;2.08;1.20;;;;;;;;;;5034713;28;20428;-87
2023/08/28 11:08:11;;;;;;;1.27;1.00;;;;;;;;;;5034534;28;20416;-86
2023/08/28 11:10:45;;;;;;;3.42;1.10;;;;;;;;;;5046482;28;20411;-86
2023/08/28 11:13:19;;;;;;;1.15;1.05;;;;;;;;;;5032882;28;20173;-87
2023/08/28 11:15:46;;;;;;;1.48;1.08;;;;;;;;;;5033977;28;20211;-86
2023/08/28 11:18:26;;;;;;;1.98;1.13;;;;;;;;;;5031369;28;20223;-86
2023/08/28 11:20:59;;;;;;;2.47;1.35;;;;;;;;;;5032845;28;20204;-86
2023/08/28 11:23:36;;;;;;;2.03;1.10;;;;;;;;;;5036614;28;20178;-86
2023/08/28 11:26:22;;;;;;;1.92;1.50;;;;;;;;;;5038546;28;20185;-87
2023/08/28 11:28:50;;;;;;;2.90;1.38;;;;;;;;;;5008373;28;20189;-86
2023/08/28 11:31:19;;;;;;;2.58;1.00;;;;;;;;;;5036564;28;20181;-86
2023/08/28 11:33:46;;;;;;;1.75;1.10;;;;;;;;;;5033673;28;20411;-86
2023/08/28 11:36:18;;;;;;;1.98;1.20;;;;;;;;;;5031043;28;20411;-86
2023/08/28 11:38:45;;;;;;;1.25;1.05;;;;;;;;;;5030611;28;20435;-87
2023/08/28 11:41:11;;;;;;;1.40;1.10;;;;;;;;;;5030488;28;20426;-86
2023/08/28 11:43:43;;;;;;;3.42;1.20;;;;;;;;;;5030366;28;20494;-86
2023/08/28 11:46:13;;;;;;;2.42;1.15;;;;;;;;;;5014477;28;20409;-86
2023/08/28 11:48:48;;;;;;;2.38;1.20;;;;;;;;;;5030647;28;20491;-86
2023/08/28 11:51:30;;;;;;;2.40;1.25;;;;;;;;;;5014406;28;20415;-85
2023/08/28 11:53:56;;;;;;;1.70;1.13;;;;;;;;;;5030163;28;20430;-86
2023/08/28 11:56:22;;;;;;;2.38;1.10;;;;;;;;;;5032292;28;20407;-85
2023/08/28 11:58:51;;;;;;;1.77;1.00;;;;;;;;;;5016954;28;20423;-85
2023/08/28 12:01:17;;;;;;;1.40;1.10;;;;;;;;;;5031187;28;20213;-86
2023/08/28 12:03:43;;;;;;;1.48;1.10;;;;;;;;;;5031066;28;20209;-87
2023/08/28 12:06:20;;;;;;;2.40;1.10;;;;;;;;;;5031012;28;20246;-86
2023/08/28 12:08:49;;;;;;;1.87;1.10;;;;;;;;;;5030325;28;20416;-87
2023/08/28 12:11:15;;;;;;;2.55;1.20;;;;;;;;;;5030534;28;20482;-86
2023/08/28 12:13:41;;;;;;;3.67;1.20;;;;;;;;;;5030333;28;20422;-86
2023/08/28 12:16:20;;;;;;;1.88;1.27;;;;;;;;;;5030082;28;20554;-86
2023/08/28 12:18:56;;;;;;;3.28;1.10;;;;;;;;;;5036501;28;20644;-86
2023/08/28 12:21:38;;;;;;;2.72;1.30;;;;;;;;;;5017131;28;20464;-86
2023/08/28 12:24:07;;;;;;;2.08;1.05;;;;;;;;;;5032972;28;20452;-85
2023/08/28 12:26:34;;;;;;;1.85;1.00;;;;;;;;;;5033194;28;20405;-86
2023/08/28 12:29:00;;;;;;;2.53;1.20;;;;;;;;;;5033347;28;20497;-86
2023/08/28 12:31:30;;;;;;;1.40;1.00;;;;;;;;;;5033161;28;20528;-86
2023/08/28 12:33:56;;;;;;;2.13;1.10;;;;;;;;;;5032861;28;20409;-86
2023/08/28 12:36:42;;;;;;;2.20;1.05;;;;;;;;;;5029391;28;20419;-86
2023/08/28 12:39:16;;;;;;;1.83;1.20;;;;;;;;;;5012957;28;20462;-86
2023/08/28 12:41:52;;;;;;;3.08;1.10;;;;;;;;;;5013017;28;20434;-87
2023/08/28 12:44:19;;;;;;;2.17;1.20;;;;;;;;;;5013222;28;20414;-84
2023/08/28 12:46:45;;;;;;;2.70;1.35;;;;;;;;;;5013161;28;20403;-84
2023/08/28 12:49:12;;;;;;;2.08;1.20;;;;;;;;;;5013829;28;20172;-84
2023/08/28 12:51:39;;;;;;;2.40;1.40;;;;;;;;;;5015306;28;20423;-84
2023/08/28 12:54:06;;;;;;;2.05;1.30;;;;;;;;;;5013161;28;20426;-84
2023/08/28 12:56:34;;;;;;;2.00;1.10;;;;;;;;;;5012981;28;20453;-86
2023/08/28 12:59:00;;;;;;;1.77;1.30;;;;;;;;;;5013427;28;20414;-84
2023/08/28 13:01:26;;;;;;;1.63;1.20;;;;;;;;;;5013292;28;20445;-85
2023/08/28 13:03:53;;;;;;;2.20;1.30;;;;;;;;;;4996509;28;20437;-85
2023/08/28 13:06:21;;;;;;;2.80;1.30;;;;;;;;;;5012634;28;20498;-85
2023/08/28 13:08:47;;;;;;;3.67;1.30;;;;;;;;;;5023094;28;20419;-84
2023/08/28 13:11:13;;;;;;;2.03;1.33;;;;;;;;;;5029757;28;20450;-85
2023/08/28 13:13:39;;;;;;;4.57;1.10;;;;;;;;;;5030106;28;20216;-85
2023/08/28 13:16:05;;;;;;;2.30;1.10;;;;;;;;;;5029120;28;20415;-85
2023/08/28 13:18:31;;;;;;;1.73;1.00;;;;;;;;;;5028746;28;20446;-85
2023/08/28 13:20:57;;;;;;;2.42;1.10;;;;;;;;;;5029065;28;20415;-85
2023/08/28 13:23:24;;;;;;;1.52;1.00;;;;;;;;;;5028735;28;20419;-84
2023/08/28 13:25:53;;;;;;;1.58;0.98;;;;;;;;;;5029012;28;20421;-84
2023/08/28 13:28:20;;;;;;;1.95;1.10;;;;;;;;;;5028562;28;20414;-84
2023/08/28 13:30:46;;;;;;;1.90;1.10;;;;;;;;;;5028944;28;20417;-85
2023/08/28 13:33:12;;;;;;;1.30;1.00;;;;;;;;;;5028499;28;20407;-84
2023/08/28 13:35:39;;;;;;;2.60;1.10;;;;;;;;;;5029407;28;20427;-84
2023/08/28 13:38:05;;;;;;;2.08;1.10;;;;;;;;;;5029219;28;20215;-85
2023/08/28 13:40:31;;;;;;;2.30;1.00;;;;;;;;;;5029234;28;20247;-85
2023/08/28 13:43:04;;;;;;;2.25;1.13;;;;;;;;;;5033043;28;20473;-85
2023/08/28 13:45:30;;;;;;;1.65;0.90;;;;;;;;;;5033580;28;20177;-85
2023/08/28 13:47:56;;;;;;;2.00;1.00;;;;;;;;;;5033449;28;20177;-85
2023/08/28 13:50:23;;;;;;;3.67;1.10;;;;;;;;;;5033211;28;20272;-85
2023/08/28 13:52:49;;;;;;;1.92;1.10;;;;;;;;;;5032507;28;20426;-84
2023/08/28 13:55:15;;;;;;;3.38;1.10;;;;;;;;;;5033401;28;20411;-83
2023/08/28 13:57:41;;;;;;;2.90;1.10;;;;;;;;;;5032413;28;20438;-83
2023/08/28 14:00:17;;;;;;;1.63;1.00;;;;;;;;;;5033180;28;20456;-84
2023/08/28 14:02:43;;;;;;;3.22;1.05;;;;;;;;;;5033288;28;20205;-84
2023/08/28 14:05:13;;;;;;;1.65;1.17;;;;;;;;;;5033308;28;20180;-84
2023/08/28 14:07:42;;;;;;;2.35;1.00;;;;;;;;;;5033490;28;20172;-84
2023/08/28 14:10:08;;;;;;;2.65;1.20;;;;;;;;;;5039325;28;20173;-83
2023/08/28 14:12:34;;;;;;;1.45;1.08;;;;;;;;;;5036667;28;20177;-84
2023/08/28 14:15:02;;;;;;;2.22;1.00;;;;;;;;;;5036285;28;20173;-84
2023/08/28 14:17:28;;;;;;;1.55;1.10;;;;;;;;;;5036078;28;20181;-83
2023/08/28 14:19:54;;;;;;;2.45;1.17;;;;;;;;;;5032526;28;20417;-83
2023/08/28 14:22:20;;;;;;;3.22;1.25;;;;;;;;;;5032632;28;20220;-83
2023/08/28 14:24:48;;;;;;;4.10;1.30;;;;;;;;;;5016340;28;20415;-83
2023/08/28 14:27:14;;;;;;;2.88;1.10;;;;;;;;;;5032777;28;20176;-83
2023/08/28 14:29:46;;;;;;;4.25;1.25;;;;;;;;;;5032908;28;20201;-83
2023/08/28 14:32:13;;;;;;;3.30;1.27;;;;;;;;;;5031711;28;20417;-84
2023/08/28 14:34:39;;;;;;;2.95;1.10;;;;;;;;;;5015868;28;20530;-84
2023/08/28 14:37:08;;;;;;;3.40;1.10;;;;;;;;;;5031844;28;20419;-83
2023/08/28 14:39:34;;;;;;;3.40;1.10;;;;;;;;;;5032305;28;20566;-83
2023/08/28 14:42:01;;;;;;;2.22;1.20;;;;;;;;;;5015298;28;20467;-84
2023/08/28 14:44:27;;;;;;;1.50;1.10;;;;;;;;;;5031684;28;20439;-86
2023/08/28 14:46:53;;;;;;;2.42;1.23;;;;;;;;;;5031589;28;20411;-86